sensor_id;sensor_type;location;lat;lon;timestamp;pressure;altitude;pressure_sealevel;temperature;humidity
12471;BME280;36499;46.484;13.832;2022-11-14T00:00:53;93841.66;;;8.26;89.30
12471;BME280;36499;46.484;13.832;2022-11-14T00:03:20;93840.22;;;8.23;89.50
12471;BME280;36499;46.484;13.832;2022-11-14T00:05:48;93844.91;;;8.13;90.51
12471;BME280;36499;46.484;13.832;2022-11-14T00:08:18;93839.44;;;8.08;90.70
12471;BME280;36499;46.484;13.832;2022-11-14T00:10:46;93841.84;;;8.09;90.82
12471;BME280;36499;46.484;13.832;2022-11-14T00:13:14;93836.31;;;7.98;91.20
12471;BME280;36499;46.484;13.832;2022-11-14T00:15:42;93836.31;;;7.98;91.39
12471;BME280;36499;46.484;13.832;2022-11-14T00:18:11;93837.91;;;7.99;91.69
12471;BME280;36499;46.484;13.832;2022-11-14T00:20:38;93840.03;;;7.95;92.08
12471;BME280;36499;46.484;13.832;2022-11-14T00:23:05;93842.63;;;7.95;92.35
12471;BME280;36499;46.484;13.832;2022-11-14T00:25:32;93834.22;;;7.93;92.31
12471;BME280;36499;46.484;13.832;2022-11-14T00:27:59;93834.06;;;7.95;92.12
12471;BME280;36499;46.484;13.832;2022-11-14T00:30:27;93835.84;;;7.94;91.55
12471;BME280;36499;46.484;13.832;2022-11-14T00:32:54;93830.38;;;8.04;91.40
12471;BME280;36499;46.484;13.832;2022-11-14T00:35:22;93824.66;;;8.23;90.81
12471;BME280;36499;46.484;13.832;2022-11-14T00:37:49;93819.63;;;8.07;91.13
12471;BME280;36499;46.484;13.832;2022-11-14T00:40:17;93829.41;;;8.05;91.80
12471;BME280;36499;46.484;13.832;2022-11-14T00:42:44;93835.94;;;8.15;91.65
12471;BME280;36499;46.484;13.832;2022-11-14T00:45:11;93836.16;;;8.29;89.82
12471;BME280;36499;46.484;13.832;2022-11-14T00:47:38;93836.06;;;8.37;89.47
12471;BME280;36499;46.484;13.832;2022-11-14T00:50:06;93826.28;;;8.39;89.24
12471;BME280;36499;46.484;13.832;2022-11-14T00:52:35;93836.03;;;8.51;88.80
12471;BME280;36499;46.484;13.832;2022-11-14T00:55:02;93823.88;;;8.52;88.43
12471;BME280;36499;46.484;13.832;2022-11-14T00:57:29;93822.94;;;8.59;88.28
12471;BME280;36499;46.484;13.832;2022-11-14T00:59:56;93816.75;;;8.60;87.74
12471;BME280;36499;46.484;13.832;2022-11-14T01:02:24;93812.72;;;8.58;88.15
12471;BME280;36499;46.484;13.832;2022-11-14T01:04:51;93809.06;;;8.52;88.13
12471;BME280;36499;46.484;13.832;2022-11-14T01:07:18;93814.78;;;8.62;87.44
12471;BME280;36499;46.484;13.832;2022-11-14T01:09:47;93813.34;;;8.60;87.80
12471;BME280;36499;46.484;13.832;2022-11-14T01:12:14;93815.19;;;8.30;88.44
12471;BME280;36499;46.484;13.832;2022-11-14T01:14:41;93818.72;;;8.58;87.43
12471;BME280;36499;46.484;13.832;2022-11-14T01:17:08;93806.00;;;8.49;88.22
12471;BME280;36499;46.484;13.832;2022-11-14T01:19:35;93804.50;;;8.54;87.58
12471;BME280;36499;46.484;13.832;2022-11-14T01:22:02;93801.41;;;8.65;87.21
12471;BME280;36499;46.484;13.832;2022-11-14T01:24:31;93796.97;;;8.45;88.45
12471;BME280;36499;46.484;13.832;2022-11-14T01:27:01;93801.53;;;8.57;87.57
12471;BME280;36499;46.484;13.832;2022-11-14T01:29:28;93799.19;;;8.62;87.34
12471;BME280;36499;46.484;13.832;2022-11-14T01:31:56;93787.63;;;8.29;89.48
12471;BME280;36499;46.484;13.832;2022-11-14T01:34:23;93794.81;;;8.19;89.90
12471;BME280;36499;46.484;13.832;2022-11-14T01:36:51;93797.88;;;8.23;89.60
12471;BME280;36499;46.484;13.832;2022-11-14T01:39:18;93796.09;;;8.23;90.10
12471;BME280;36499;46.484;13.832;2022-11-14T01:41:46;93790.44;;;8.19;90.05
12471;BME280;36499;46.484;13.832;2022-11-14T01:44:17;93794.50;;;8.37;89.03
12471;BME280;36499;46.484;13.832;2022-11-14T01:47:03;93792.44;;;8.32;89.47
12471;BME280;36499;46.484;13.832;2022-11-14T01:49:38;93796.44;;;8.49;89.18
12471;BME280;36499;46.484;13.832;2022-11-14T01:52:10;93801.13;;;8.39;89.46
12471;BME280;36499;46.484;13.832;2022-11-14T01:54:41;93798.78;;;8.30;89.63
12471;BME280;36499;46.484;13.832;2022-11-14T01:57:11;93794.03;;;8.33;89.36
12471;BME280;36499;46.484;13.832;2022-11-14T01:59:47;93793.28;;;8.54;89.28
12471;BME280;36499;46.484;13.832;2022-11-14T02:02:18;93792.25;;;8.48;88.69
12471;BME280;36499;46.484;13.832;2022-11-14T02:04:53;93788.66;;;8.35;89.79
12471;BME280;36499;46.484;13.832;2022-11-14T02:07:23;93786.22;;;8.33;89.67
12471;BME280;36499;46.484;13.832;2022-11-14T02:09:51;93793.13;;;8.26;90.76
12471;BME280;36499;46.484;13.832;2022-11-14T02:12:20;93794.41;;;8.01;92.04
12471;BME280;36499;46.484;13.832;2022-11-14T02:14:54;93795.81;;;7.89;92.14
12471;BME280;36499;46.484;13.832;2022-11-14T02:17:23;93794.56;;;7.99;92.56
12471;BME280;36499;46.484;13.832;2022-11-14T02:19:54;93792.88;;;7.92;93.24
12471;BME280;36499;46.484;13.832;2022-11-14T02:22:23;93791.28;;;7.91;93.84
12471;BME280;36499;46.484;13.832;2022-11-14T02:24:50;93798.69;;;8.23;92.51
12471;BME280;36499;46.484;13.832;2022-11-14T02:27:17;93798.41;;;8.18;92.19
12471;BME280;36499;46.484;13.832;2022-11-14T02:29:45;93793.84;;;8.20;92.38
12471;BME280;36499;46.484;13.832;2022-11-14T02:32:12;93784.06;;;8.22;91.58
12471;BME280;36499;46.484;13.832;2022-11-14T02:34:39;93786.66;;;8.22;91.90
12471;BME280;36499;46.484;13.832;2022-11-14T02:37:07;93794.72;;;8.27;91.80
12471;BME280;36499;46.484;13.832;2022-11-14T02:39:35;93784.00;;;8.30;91.10
12471;BME280;36499;46.484;13.832;2022-11-14T02:42:04;93778.81;;;8.30;91.31
12471;BME280;36499;46.484;13.832;2022-11-14T02:44:31;93779.25;;;8.34;91.20
12471;BME280;36499;46.484;13.832;2022-11-14T02:46:58;93775.84;;;8.33;90.98
12471;BME280;36499;46.484;13.832;2022-11-14T02:49:25;93770.03;;;8.31;90.98
12471;BME280;36499;46.484;13.832;2022-11-14T02:51:52;93767.94;;;8.27;90.78
12471;BME280;36499;46.484;13.832;2022-11-14T02:54:19;93777.19;;;8.14;91.78
12471;BME280;36499;46.484;13.832;2022-11-14T02:56:47;93767.44;;;8.31;91.25
12471;BME280;36499;46.484;13.832;2022-11-14T02:59:15;93762.25;;;8.31;90.88
12471;BME280;36499;46.484;13.832;2022-11-14T03:01:42;93768.31;;;8.38;90.24
12471;BME280;36499;46.484;13.832;2022-11-14T03:04:09;93757.50;;;8.35;90.56
12471;BME280;36499;46.484;13.832;2022-11-14T03:06:36;93756.88;;;8.33;90.02
12471;BME280;36499;46.484;13.832;2022-11-14T03:09:03;93750.13;;;8.38;90.16
12471;BME280;36499;46.484;13.832;2022-11-14T03:11:30;93752.56;;;8.40;90.25
12471;BME280;36499;46.484;13.832;2022-11-14T03:14:00;93749.44;;;8.44;89.95
12471;BME280;36499;46.484;13.832;2022-11-14T03:16:27;93755.06;;;8.48;89.62
12471;BME280;36499;46.484;13.832;2022-11-14T03:18:54;93752.63;;;8.46;89.31
12471;BME280;36499;46.484;13.832;2022-11-14T03:21:22;93755.59;;;8.43;89.39
12471;BME280;36499;46.484;13.832;2022-11-14T03:23:49;93763.56;;;8.42;89.66
12471;BME280;36499;46.484;13.832;2022-11-14T03:26:16;93770.38;;;8.43;89.27
12471;BME280;36499;46.484;13.832;2022-11-14T03:28:44;93766.56;;;8.60;88.85
12471;BME280;36499;46.484;13.832;2022-11-14T03:31:13;93770.72;;;8.54;88.64
12471;BME280;36499;46.484;13.832;2022-11-14T03:33:41;93759.28;;;8.34;89.25
12471;BME280;36499;46.484;13.832;2022-11-14T03:36:08;93758.31;;;8.35;89.02
12471;BME280;36499;46.484;13.832;2022-11-14T03:38:35;93758.31;;;8.35;89.26
12471;BME280;36499;46.484;13.832;2022-11-14T03:41:03;93757.50;;;8.35;89.43
12471;BME280;36499;46.484;13.832;2022-11-14T03:43:31;93764.63;;;8.47;88.82
12471;BME280;36499;46.484;13.832;2022-11-14T03:46:00;93768.84;;;8.48;89.30
12471;BME280;36499;46.484;13.832;2022-11-14T03:48:30;93757.38;;;8.79;87.24
12471;BME280;36499;46.484;13.832;2022-11-14T03:50:57;93767.28;;;8.90;86.81
12471;BME280;36499;46.484;13.832;2022-11-14T03:53:24;93781.69;;;8.92;86.00
12471;BME280;36499;46.484;13.832;2022-11-14T03:55:54;93775.00;;;8.83;86.73
12471;BME280;36499;46.484;13.832;2022-11-14T03:58:21;93775.81;;;8.62;88.34
12471;BME280;36499;46.484;13.832;2022-11-14T04:00:48;93770.97;;;8.59;88.10
12471;BME280;36499;46.484;13.832;2022-11-14T04:03:15;93771.91;;;8.52;88.64
12471;BME280;36499;46.484;13.832;2022-11-14T04:05:44;93771.91;;;8.52;88.54
12471;BME280;36499;46.484;13.832;2022-11-14T04:08:11;93767.38;;;8.60;88.20
12471;BME280;36499;46.484;13.832;2022-11-14T04:10:38;93769.78;;;8.62;88.06
12471;BME280;36499;46.484;13.832;2022-11-14T04:13:07;93774.19;;;8.61;87.83
12471;BME280;36499;46.484;13.832;2022-11-14T04:15:34;93778.41;;;8.62;88.10
12471;BME280;36499;46.484;13.832;2022-11-14T04:18:01;93766.38;;;8.61;87.81
12471;BME280;36499;46.484;13.832;2022-11-14T04:20:28;93774.81;;;8.63;88.16
12471;BME280;36499;46.484;13.832;2022-11-14T04:22:57;93777.66;;;8.68;87.84
12471;BME280;36499;46.484;13.832;2022-11-14T04:25:24;93776.50;;;8.71;87.29
12471;BME280;36499;46.484;13.832;2022-11-14T04:27:51;93776.84;;;8.68;87.56
12471;BME280;36499;46.484;13.832;2022-11-14T04:30:18;93770.66;;;8.69;87.75
12471;BME280;36499;46.484;13.832;2022-11-14T04:32:45;93779.00;;;8.64;87.35
12471;BME280;36499;46.484;13.832;2022-11-14T04:35:14;93770.84;;;8.67;87.00
12471;BME280;36499;46.484;13.832;2022-11-14T04:37:41;93765.28;;;8.71;86.52
12471;BME280;36499;46.484;13.832;2022-11-14T04:40:10;93760.72;;;8.94;85.82
12471;BME280;36499;46.484;13.832;2022-11-14T04:42:41;93773.22;;;9.05;85.38
12471;BME280;36499;46.484;13.832;2022-11-14T04:45:09;93773.16;;;8.98;85.42
12471;BME280;36499;46.484;13.832;2022-11-14T04:47:36;93776.34;;;8.79;86.19
12471;BME280;36499;46.484;13.832;2022-11-14T04:50:05;93768.72;;;8.56;87.81
12471;BME280;36499;46.484;13.832;2022-11-14T04:52:32;93765.91;;;8.37;88.33
12471;BME280;36499;46.484;13.832;2022-11-14T04:54:59;93770.22;;;8.44;87.76
12471;BME280;36499;46.484;13.832;2022-11-14T04:57:27;93779.59;;;8.45;87.78
12471;BME280;36499;46.484;13.832;2022-11-14T04:59:54;93773.47;;;8.53;87.87
12471;BME280;36499;46.484;13.832;2022-11-14T05:02:21;93772.31;;;8.55;88.25
12471;BME280;36499;46.484;13.832;2022-11-14T05:04:48;93772.88;;;8.51;86.91
12471;BME280;36499;46.484;13.832;2022-11-14T05:07:15;93762.59;;;8.43;87.18
12471;BME280;36499;46.484;13.832;2022-11-14T05:09:43;93770.44;;;8.49;86.68
12471;BME280;36499;46.484;13.832;2022-11-14T05:12:10;93771.69;;;8.53;87.10
12471;BME280;36499;46.484;13.832;2022-11-14T05:14:38;93770.72;;;8.54;87.75
12471;BME280;36499;46.484;13.832;2022-11-14T05:17:05;93771.59;;;8.61;87.33
12471;BME280;36499;46.484;13.832;2022-11-14T05:19:32;93773.56;;;8.59;87.11
12471;BME280;36499;46.484;13.832;2022-11-14T05:21:59;93768.97;;;8.61;87.19
12471;BME280;36499;46.484;13.832;2022-11-14T05:24:26;93774.19;;;8.61;87.67
12471;BME280;36499;46.484;13.832;2022-11-14T05:26:54;93775.16;;;8.60;87.82
12471;BME280;36499;46.484;13.832;2022-11-14T05:29:21;93768.00;;;8.62;87.90
12471;BME280;36499;46.484;13.832;2022-11-14T05:31:49;93767.38;;;8.60;87.58
12471;BME280;36499;46.484;13.832;2022-11-14T05:34:16;93765.56;;;8.61;87.55
12471;BME280;36499;46.484;13.832;2022-11-14T05:36:43;93771.75;;;8.60;88.03
12471;BME280;36499;46.484;13.832;2022-11-14T05:39:10;93775.16;;;8.60;88.03
12471;BME280;36499;46.484;13.832;2022-11-14T05:41:37;93776.19;;;8.59;88.52
12471;BME280;36499;46.484;13.832;2022-11-14T05:44:05;93773.47;;;8.53;88.47
12471;BME280;36499;46.484;13.832;2022-11-14T05:46:32;93779.84;;;8.50;89.08
12471;BME280;36499;46.484;13.832;2022-11-14T05:49:01;93774.06;;;8.48;89.04
12471;BME280;36499;46.484;13.832;2022-11-14T05:51:28;93779.25;;;8.48;88.61
12471;BME280;36499;46.484;13.832;2022-11-14T05:53:55;93783.44;;;8.49;88.98
12471;BME280;36499;46.484;13.832;2022-11-14T05:56:22;93786.69;;;8.51;88.73
12471;BME280;36499;46.484;13.832;2022-11-14T05:58:49;93785.06;;;8.50;89.05
12471;BME280;36499;46.484;13.832;2022-11-14T06:01:19;93781.84;;;8.48;88.97
12471;BME280;36499;46.484;13.832;2022-11-14T06:03:48;93780.66;;;8.51;88.90
12471;BME280;36499;46.484;13.832;2022-11-14T06:06:19;93792.03;;;8.50;88.94
12471;BME280;36499;46.484;13.832;2022-11-14T06:08:46;93789.88;;;8.53;89.07
12471;BME280;36499;46.484;13.832;2022-11-14T06:11:16;93782.09;;;8.53;88.86
12471;BME280;36499;46.484;13.832;2022-11-14T06:13:44;93791.13;;;8.57;88.47
12471;BME280;36499;46.484;13.832;2022-11-14T06:16:14;93799.56;;;8.59;88.73
12471;BME280;36499;46.484;13.832;2022-11-14T06:18:42;93798.94;;;8.57;88.72
12471;BME280;36499;46.484;13.832;2022-11-14T06:21:11;93802.72;;;8.55;88.73
12471;BME280;36499;46.484;13.832;2022-11-14T06:23:41;93805.91;;;8.57;88.70
12471;BME280;36499;46.484;13.832;2022-11-14T06:26:19;93808.50;;;8.57;88.89
12471;BME280;36499;46.484;13.832;2022-11-14T06:28:47;93808.50;;;8.57;88.98
12471;BME280;36499;46.484;13.832;2022-11-14T06:31:16;93819.91;;;8.56;89.11
12471;BME280;36499;46.484;13.832;2022-11-14T06:33:43;93813.91;;;8.55;89.04
12471;BME280;36499;46.484;13.832;2022-11-14T06:36:11;93815.50;;;8.56;89.29
12471;BME280;36499;46.484;13.832;2022-11-14T06:38:41;93824.09;;;8.57;89.05
12471;BME280;36499;46.484;13.832;2022-11-14T06:41:11;93825.72;;;8.58;89.54
12471;BME280;36499;46.484;13.832;2022-11-14T06:43:40;93821.94;;;8.60;89.06
12471;BME280;36499;46.484;13.832;2022-11-14T06:46:10;93826.34;;;8.60;88.83
12471;BME280;36499;46.484;13.832;2022-11-14T06:48:38;93830.09;;;8.57;88.84
12471;BME280;36499;46.484;13.832;2022-11-14T06:51:06;93834.78;;;8.62;89.14
12471;BME280;36499;46.484;13.832;2022-11-14T06:53:35;93826.59;;;8.65;88.69
12471;BME280;36499;46.484;13.832;2022-11-14T06:56:06;93826.22;;;8.68;88.83
12471;BME280;36499;46.484;13.832;2022-11-14T06:58:37;93826.44;;;8.66;88.52
12471;BME280;36499;46.484;13.832;2022-11-14T07:01:10;93831.78;;;8.65;88.77
12471;BME280;36499;46.484;13.832;2022-11-14T07:03:37;93821.13;;;8.60;89.21
12471;BME280;36499;46.484;13.832;2022-11-14T07:06:06;93826.81;;;8.63;88.54
12471;BME280;36499;46.484;13.832;2022-11-14T07:08:34;93822.03;;;8.67;88.45
12471;BME280;36499;46.484;13.832;2022-11-14T07:11:05;93821.84;;;8.68;88.45
12471;BME280;36499;46.484;13.832;2022-11-14T07:13:33;93815.41;;;8.64;88.94
12471;BME280;36499;46.484;13.832;2022-11-14T07:16:02;93814.41;;;8.65;88.49
12471;BME280;36499;46.484;13.832;2022-11-14T07:18:31;93823.19;;;8.64;88.46
12471;BME280;36499;46.484;13.832;2022-11-14T07:21:02;93819.44;;;8.67;88.73
12471;BME280;36499;46.484;13.832;2022-11-14T07:23:31;93820.41;;;8.66;88.91
12471;BME280;36499;46.484;13.832;2022-11-14T07:26:00;93825.38;;;8.46;89.77
12471;BME280;36499;46.484;13.832;2022-11-14T07:28:30;93813.75;;;8.78;92.80
12471;BME280;36499;46.484;13.832;2022-11-14T07:30:57;93816.00;;;9.02;92.51
12471;BME280;36499;46.484;13.832;2022-11-14T07:33:24;93811.84;;;9.29;91.48
12471;BME280;36499;46.484;13.832;2022-11-14T07:35:52;93826.09;;;9.54;90.75
12471;BME280;36499;46.484;13.832;2022-11-14T07:38:19;93835.06;;;9.73;88.83
12471;BME280;36499;46.484;13.832;2022-11-14T07:40:53;93832.97;;;9.90;86.81
12471;BME280;36499;46.484;13.832;2022-11-14T07:43:20;93834.97;;;9.88;85.44
12471;BME280;36499;46.484;13.832;2022-11-14T07:45:49;93828.47;;;9.77;84.62
12471;BME280;36499;46.484;13.832;2022-11-14T07:48:17;93821.75;;;9.61;84.58
12471;BME280;36499;46.484;13.832;2022-11-14T07:50:46;93815.00;;;9.46;84.61
12471;BME280;36499;46.484;13.832;2022-11-14T07:53:13;93819.16;;;9.40;84.30
12471;BME280;36499;46.484;13.832;2022-11-14T07:55:42;93821.72;;;9.34;85.17
12471;BME280;36499;46.484;13.832;2022-11-14T07:58:09;93815.47;;;9.28;85.28
12471;BME280;36499;46.484;13.832;2022-11-14T08:00:36;93815.81;;;9.25;85.71
12471;BME280;36499;46.484;13.832;2022-11-14T08:03:09;93818.91;;;9.14;85.91
12471;BME280;36499;46.484;13.832;2022-11-14T08:05:36;93815.06;;;9.10;86.24
12471;BME280;36499;46.484;13.832;2022-11-14T08:08:04;93804.50;;;9.11;86.68
12471;BME280;36499;46.484;13.832;2022-11-14T08:10:31;93809.88;;;9.10;86.86
12471;BME280;36499;46.484;13.832;2022-11-14T08:12:59;93796.88;;;9.10;86.70
12471;BME280;36499;46.484;13.832;2022-11-14T08:15:26;93794.66;;;9.07;86.77
12471;BME280;36499;46.484;13.832;2022-11-14T08:17:56;93799.78;;;9.00;86.98
12471;BME280;36499;46.484;13.832;2022-11-14T08:20:26;93805.53;;;8.96;86.57
12471;BME280;36499;46.484;13.832;2022-11-14T08:22:54;93794.72;;;8.92;87.12
12471;BME280;36499;46.484;13.832;2022-11-14T08:25:27;93795.88;;;8.90;87.51
12471;BME280;36499;46.484;13.832;2022-11-14T08:27:54;93807.88;;;8.91;87.64
12471;BME280;36499;46.484;13.832;2022-11-14T08:30:21;93818.47;;;8.89;87.54
12471;BME280;36499;46.484;13.832;2022-11-14T08:32:48;93802.78;;;8.83;87.51
12471;BME280;36499;46.484;13.832;2022-11-14T08:35:15;93803.69;;;8.90;87.65
12471;BME280;36499;46.484;13.832;2022-11-14T08:37:44;93814.09;;;8.90;87.51
12471;BME280;36499;46.484;13.832;2022-11-14T08:40:11;93804.03;;;8.87;87.59
12471;BME280;36499;46.484;13.832;2022-11-14T08:42:38;93805.03;;;8.86;87.49
12471;BME280;36499;46.484;13.832;2022-11-14T08:45:06;93794.28;;;8.89;87.64
12471;BME280;36499;46.484;13.832;2022-11-14T08:47:33;93783.88;;;8.89;87.77
12471;BME280;36499;46.484;13.832;2022-11-14T08:50:00;93786.97;;;8.99;87.63
12471;BME280;36499;46.484;13.832;2022-11-14T08:52:27;93792.41;;;9.04;87.71
12471;BME280;36499;46.484;13.832;2022-11-14T08:54:56;93787.81;;;9.06;87.37
12471;BME280;36499;46.484;13.832;2022-11-14T08:57:23;93785.06;;;9.07;87.50
12471;BME280;36499;46.484;13.832;2022-11-14T08:59:50;93781.47;;;9.08;87.67
12471;BME280;36499;46.484;13.832;2022-11-14T09:02:17;93775.63;;;9.06;87.67
12471;BME280;36499;46.484;13.832;2022-11-14T09:04:44;93788.47;;;9.08;86.98
12471;BME280;36499;46.484;13.832;2022-11-14T09:07:11;93784.44;;;9.05;86.35
12471;BME280;36499;46.484;13.832;2022-11-14T09:09:38;93794.03;;;9.05;84.84
12471;BME280;36499;46.484;13.832;2022-11-14T09:12:07;93795.03;;;9.04;84.66
12471;BME280;36499;46.484;13.832;2022-11-14T09:14:34;93788.03;;;9.04;84.61
12471;BME280;36499;46.484;13.832;2022-11-14T09:17:01;93787.03;;;9.05;85.23
12471;BME280;36499;46.484;13.832;2022-11-14T09:19:28;93787.28;;;9.10;85.24
12471;BME280;36499;46.484;13.832;2022-11-14T09:21:55;93794.66;;;9.28;83.94
12471;BME280;36499;46.484;13.832;2022-11-14T09:24:22;93790.94;;;9.16;84.46
12471;BME280;36499;46.484;13.832;2022-11-14T09:26:51;93784.38;;;9.20;83.77
12471;BME280;36499;46.484;13.832;2022-11-14T09:29:20;93777.00;;;9.24;83.34
12471;BME280;36499;46.484;13.832;2022-11-14T09:31:47;93773.47;;;9.31;82.68
12471;BME280;36499;46.484;13.832;2022-11-14T09:34:14;93766.69;;;9.37;82.45
12471;BME280;36499;46.484;13.832;2022-11-14T09:36:41;93756.09;;;9.38;81.99
12471;BME280;36499;46.484;13.832;2022-11-14T09:39:08;93756.69;;;9.40;81.44
12471;BME280;36499;46.484;13.832;2022-11-14T09:41:51;93754.16;;;9.47;82.29
12471;BME280;36499;46.484;13.832;2022-11-14T09:44:48;93771.44;;;9.54;82.53
12471;BME280;36499;46.484;13.832;2022-11-14T09:47:26;93775.69;;;9.62;83.11
12471;BME280;36499;46.484;13.832;2022-11-14T09:50:03;93791.78;;;9.72;82.85
12471;BME280;36499;46.484;13.832;2022-11-14T09:52:36;93783.19;;;9.78;82.75
12471;BME280;36499;46.484;13.832;2022-11-14T09:55:11;93770.25;;;9.85;82.76
12471;BME280;36499;46.484;13.832;2022-11-14T09:57:41;93765.25;;;9.90;82.59
12471;BME280;36499;46.484;13.832;2022-11-14T10:00:17;93771.09;;;9.92;82.14
12471;BME280;36499;46.484;13.832;2022-11-14T10:03:02;93771.50;;;9.95;82.19
12471;BME280;36499;46.484;13.832;2022-11-14T10:05:47;93773.53;;;10.00;81.84
12471;BME280;36499;46.484;13.832;2022-11-14T10:08:40;93771.75;;;10.00;81.76
12471;BME280;36499;46.484;13.832;2022-11-14T10:11:17;93773.97;;;10.03;81.97
12471;BME280;36499;46.484;13.832;2022-11-14T10:14:17;93771.53;;;10.02;81.84
12471;BME280;36499;46.484;13.832;2022-11-14T10:17:03;93776.34;;;10.05;81.43
12471;BME280;36499;46.484;13.832;2022-11-14T10:19:40;93767.53;;;10.06;81.96
12471;BME280;36499;46.484;13.832;2022-11-14T10:22:26;93758.19;;;10.11;81.33
12471;BME280;36499;46.484;13.832;2022-11-14T10:25:21;93754.00;;;10.17;81.28
12471;BME280;36499;46.484;13.832;2022-11-14T10:28:10;93747.66;;;10.26;80.85
12471;BME280;36499;46.484;13.832;2022-11-14T10:30:52;93744.47;;;10.31;80.83
12471;BME280;36499;46.484;13.832;2022-11-14T10:33:45;93740.84;;;10.32;80.96
12471;BME280;36499;46.484;13.832;2022-11-14T10:36:31;93740.88;;;10.38;80.83
12471;BME280;36499;46.484;13.832;2022-11-14T10:39:10;93739.09;;;10.45;80.66
12471;BME280;36499;46.484;13.832;2022-11-14T10:41:42;93748.31;;;10.48;80.97
12471;BME280;36499;46.484;13.832;2022-11-14T10:44:16;93745.31;;;10.51;80.71
12471;BME280;36499;46.484;13.832;2022-11-14T10:46:51;93759.56;;;10.55;80.36
12471;BME280;36499;46.484;13.832;2022-11-14T10:49:23;93750.34;;;10.59;80.14
12471;BME280;36499;46.484;13.832;2022-11-14T10:51:54;93736.13;;;10.62;79.97
12471;BME280;36499;46.484;13.832;2022-11-14T10:54:30;93744.56;;;10.57;79.08
12471;BME280;36499;46.484;13.832;2022-11-14T10:57:00;93730.72;;;10.63;79.27
12471;BME280;36499;46.484;13.832;2022-11-14T10:59:27;93729.50;;;10.66;78.98
12471;BME280;36499;46.484;13.832;2022-11-14T11:01:57;93723.31;;;10.67;78.37
12471;BME280;36499;46.484;13.832;2022-11-14T11:04:28;93724.50;;;10.71;78.51
12471;BME280;36499;46.484;13.832;2022-11-14T11:07:16;93712.47;;;10.70;78.45
12471;BME280;36499;46.484;13.832;2022-11-14T11:09:59;93717.88;;;10.62;78.06
12471;BME280;36499;46.484;13.832;2022-11-14T11:12:47;93716.88;;;10.63;77.93
12471;BME280;36499;46.484;13.832;2022-11-14T11:15:19;93725.91;;;10.53;78.14
12471;BME280;36499;46.484;13.832;2022-11-14T11:17:54;93724.63;;;10.43;78.07
12471;BME280;36499;46.484;13.832;2022-11-14T11:20:31;93723.16;;;10.27;79.04
12471;BME280;36499;46.484;13.832;2022-11-14T11:23:03;93716.50;;;10.11;79.07
12471;BME280;36499;46.484;13.832;2022-11-14T11:25:33;93709.81;;;10.02;79.52
12471;BME280;36499;46.484;13.832;2022-11-14T11:28:06;93703.91;;;10.15;79.19
12471;BME280;36499;46.484;13.832;2022-11-14T11:30:33;93706.13;;;10.25;79.74
12471;BME280;36499;46.484;13.832;2022-11-14T11:33:23;93697.75;;;10.29;78.68
12471;BME280;36499;46.484;13.832;2022-11-14T11:35:55;93700.13;;;10.24;79.15
12471;BME280;36499;46.484;13.832;2022-11-14T11:38:26;93697.13;;;10.27;79.21
12471;BME280;36499;46.484;13.832;2022-11-14T11:41:02;93695.94;;;10.23;79.00
12471;BME280;36499;46.484;13.832;2022-11-14T11:43:38;93690.09;;;10.28;78.46
12471;BME280;36499;46.484;13.832;2022-11-14T11:46:17;93688.53;;;10.27;78.76
12471;BME280;36499;46.484;13.832;2022-11-14T11:48:54;93682.31;;;10.34;78.85
12471;BME280;36499;46.484;13.832;2022-11-14T11:51:25;93682.69;;;10.25;79.04
12471;BME280;36499;46.484;13.832;2022-11-14T11:54:01;93677.31;;;10.33;79.47
12471;BME280;36499;46.484;13.832;2022-11-14T11:56:31;93675.69;;;10.32;78.73
12471;BME280;36499;46.484;13.832;2022-11-14T11:59:19;93678.91;;;10.40;78.44
12471;BME280;36499;46.484;13.832;2022-11-14T12:01:50;93682.03;;;10.16;78.75
12471;BME280;36499;46.484;13.832;2022-11-14T12:04:17;93673.66;;;10.21;78.39
12471;BME280;36499;46.484;13.832;2022-11-14T12:07:00;93680.69;;;10.27;78.17
12471;BME280;36499;46.484;13.832;2022-11-14T12:09:37;93670.72;;;10.43;78.30
12471;BME280;36499;46.484;13.832;2022-11-14T12:12:12;93674.34;;;10.49;78.01
12471;BME280;36499;46.484;13.832;2022-11-14T12:15:01;93665.94;;;10.53;77.83
12471;BME280;36499;46.484;13.832;2022-11-14T12:18:06;93664.31;;;10.59;77.37
12471;BME280;36499;46.484;13.832;2022-11-14T12:20:53;93664.53;;;10.71;76.53
12471;BME280;36499;46.484;13.832;2022-11-14T12:27:11;93663.16;;;10.88;76.38
12471;BME280;36499;46.484;13.832;2022-11-14T12:30:07;93668.16;;;10.96;75.71
12471;BME280;36499;46.484;13.832;2022-11-14T12:32:41;93672.38;;;11.03;75.01
12471;BME280;36499;46.484;13.832;2022-11-14T12:35:18;93670.78;;;11.09;75.17
12471;BME280;36499;46.484;13.832;2022-11-14T12:37:50;93671.59;;;11.16;74.72
12471;BME280;36499;46.484;13.832;2022-11-14T12:40:25;93660.53;;;11.21;74.14
12471;BME280;36499;46.484;13.832;2022-11-14T12:42:54;93655.53;;;11.26;74.34
12471;BME280;36499;46.484;13.832;2022-11-14T12:46:00;93654.72;;;11.25;73.62
12471;BME280;36499;46.484;13.832;2022-11-14T12:48:36;93649.31;;;11.33;73.81
12471;BME280;36499;46.484;13.832;2022-11-14T12:54:41;93646.25;;;11.43;74.45
12471;BME280;36499;46.484;13.832;2022-11-14T12:57:21;93645.44;;;11.49;74.50
12471;BME280;36499;46.484;13.832;2022-11-14T13:00:08;93639.44;;;11.48;74.25
12471;BME280;36499;46.484;13.832;2022-11-14T13:05:58;93626.75;;;11.45;74.08
12471;BME280;36499;46.484;13.832;2022-11-14T13:11:41;93617.50;;;11.49;74.88
12471;BME280;36499;46.484;13.832;2022-11-14T13:14:29;93621.16;;;11.48;75.04
12471;BME280;36499;46.484;13.832;2022-11-14T13:17:25;93614.91;;;11.49;75.70
12471;BME280;36499;46.484;13.832;2022-11-14T13:20:28;93621.34;;;11.47;75.70
12471;BME280;36499;46.484;13.832;2022-11-14T13:23:52;93613.94;;;11.44;76.02
12471;BME280;36499;46.484;13.832;2022-11-14T13:26:48;93609.72;;;11.43;76.18
12471;BME280;36499;46.484;13.832;2022-11-14T13:29:56;93612.72;;;11.40;76.47
12471;BME280;36499;46.484;13.832;2022-11-14T13:33:01;93606.50;;;11.41;76.66